Terminal Aerodrome Forecast
Issued by NWS

Home | Current Version | Previous Version | Text Only | Print | Product List | Glossary On
Versions: 1 2 3 4 5 6 7 8 9 10 11 12 13 14 15 16 17 18 19 20
000
FTUS42 KRAH 291256 AAA
TAFRWI
TAF AMD
KRWI 291256Z 2913/3012 35007KT 5SM BR OVC003
      TEMPO 2913/2915 P6SM NSW OVC006
     FM291600 33004KT P6SM BKN018
     FM291900 34006KT P6SM BKN050
     FM292200 VRB05KT P6SM BKN250=

USA.gov is the U.S. government's official web portal to all federal, state and local government web resources and services.